Time;durP1;ratioP1;P1;durP2;ratioP2;P2;SDS_P1;SDS_P2;PMS_P1;PMS_P2;Temp;Humidity;BMP_temperature;BMP_pressure;BME280_temperature;BME280_humidity;BME280_pressure;Samples;Min_cycle;Max_cycle;Signal;HPM_P1;HPM_P2
2023/04/23 00:00:14;;;;;;;11.40;5.50;;;;;;;-128.00;-1.00;-1.00;98012;293;1003624;-30
2023/04/23 00:02:42;;;;;;;10.90;6.50;;;;;;;-128.00;-1.00;-1.00;97967;293;1003228;-32
2023/04/23 00:05:09;;;;;;;11.20;7.00;;;;;;;-128.00;-1.00;-1.00;97967;293;1002730;-29
2023/04/23 00:07:35;;;;;;;21.50;8.20;;;;;;;-128.00;-1.00;-1.00;98048;293;1004291;-33
2023/04/23 00:10:03;;;;;;;27.70;11.40;;;;;;;-128.00;-1.00;-1.00;97990;293;1004168;-29
2023/04/23 00:12:30;;;;;;;22.70;10.30;;;;;;;-128.00;-1.00;-1.00;98014;293;1004278;-29
2023/04/23 00:14:56;;;;;;;36.10;12.50;;;;;;;-128.00;-1.00;-1.00;98252;293;1003895;-34
2023/04/23 00:17:21;;;;;;;26.80;10.20;;;;;;;-128.00;-1.00;-1.00;98006;293;1003358;-30
2023/04/23 00:19:48;;;;;;;24.10;10.00;;;;;;;-128.00;-1.00;-1.00;97934;295;1003097;-29
2023/04/23 00:22:15;;;;;;;24.90;10.90;;;;;;;-128.00;-1.00;-1.00;98100;286;1003810;-34
2023/04/23 00:24:41;;;;;;;23.80;10.70;;;;;;;-128.00;-1.00;-1.00;97932;293;1003115;-34
2023/04/23 00:27:08;;;;;;;44.50;10.90;;;;;;;-128.00;-1.00;-1.00;98046;293;1003425;-29
2023/04/23 00:29:34;;;;;;;37.90;15.00;;;;;;;-128.00;-1.00;-1.00;98042;293;1003105;-29
2023/04/23 00:32:00;;;;;;;31.50;14.00;;;;;;;-128.00;-1.00;-1.00;97991;293;1002886;-31
2023/04/23 00:34:26;;;;;;;33.70;14.30;;;;;;;-128.00;-1.00;-1.00;98188;293;1003150;-35
2023/04/23 00:36:52;;;;;;;19.00;9.30;;;;;;;-128.00;-1.00;-1.00;98088;293;1003266;-29
2023/04/23 00:39:17;;;;;;;16.70;7.80;;;;;;;-128.00;-1.00;-1.00;97921;293;1003801;-30
2023/04/23 00:41:43;;;;;;;25.10;11.60;;;;;;;-128.00;-1.00;-1.00;98037;286;1003956;-29
2023/04/23 00:44:09;;;;;;;36.30;14.00;;;;;;;-128.00;-1.00;-1.00;97963;293;1003008;-33
2023/04/23 00:46:35;;;;;;;32.30;13.40;;;;;;;-128.00;-1.00;-1.00;97986;293;1003556;-30
2023/04/23 00:49:01;;;;;;;29.70;10.40;;;;;;;-128.00;-1.00;-1.00;98061;293;1002992;-30
2023/04/23 00:51:27;;;;;;;28.20;11.90;;;;;;;-128.00;-1.00;-1.00;97929;294;1004733;-33
2023/04/23 00:53:54;;;;;;;18.20;9.40;;;;;;;-128.00;-1.00;-1.00;97915;294;1003403;-33
2023/04/23 00:56:19;;;;;;;21.80;8.30;;;;;;;-128.00;-1.00;-1.00;97975;294;1003926;-32
2023/04/23 00:58:45;;;;;;;12.50;8.40;;;;;;;-128.00;-1.00;-1.00;97883;287;1003446;-35
2023/04/23 01:01:11;;;;;;;14.70;5.40;;;;;;;-128.00;-1.00;-1.00;97956;294;1002959;-34
2023/04/23 01:03:36;;;;;;;12.00;7.40;;;;;;;-128.00;-1.00;-1.00;98075;294;1005141;-31
2023/04/23 01:06:03;;;;;;;19.30;8.00;;;;;;;-128.00;-1.00;-1.00;97839;294;1006100;-33
2023/04/23 01:08:28;;;;;;;14.50;7.30;;;;;;;-128.00;-1.00;-1.00;97915;294;1004411;-29
2023/04/23 01:10:54;;;;;;;13.10;7.80;;;;;;;-128.00;-1.00;-1.00;97910;294;1003157;-33
2023/04/23 01:13:21;;;;;;;12.90;7.50;;;;;;;-128.00;-1.00;-1.00;97897;294;1003589;-33
2023/04/23 01:15:46;;;;;;;19.80;9.40;;;;;;;-128.00;-1.00;-1.00;97961;282;1003055;-29
2023/04/23 01:18:13;;;;;;;31.70;12.50;;;;;;;-128.00;-1.00;-1.00;97860;294;1003463;-33
2023/04/23 01:20:39;;;;;;;29.30;11.20;;;;;;;-128.00;-1.00;-1.00;98000;294;1003291;-29
2023/04/23 01:23:05;;;;;;;18.90;9.30;;;;;;;-128.00;-1.00;-1.00;97895;294;1004277;-29
2023/04/23 01:25:30;;;;;;;30.00;14.00;;;;;;;-128.00;-1.00;-1.00;97927;294;1003393;-35
2023/04/23 01:27:59;;;;;;;12.10;7.40;;;;;;;-128.00;-1.00;-1.00;97993;294;1004104;-30
2023/04/23 01:30:25;;;;;;;18.60;9.20;;;;;;;-128.00;-1.00;-1.00;97940;294;1002992;-30
2023/04/23 01:32:53;;;;;;;17.80;7.10;;;;;;;-128.00;-1.00;-1.00;98032;294;1003067;-30
2023/04/23 01:35:18;;;;;;;10.50;6.90;;;;;;;-128.00;-1.00;-1.00;97983;294;1004147;-33
2023/04/23 01:37:44;;;;;;;13.00;7.60;;;;;;;-128.00;-1.00;-1.00;97876;293;1002827;-34
2023/04/23 01:40:10;;;;;;;25.50;12.30;;;;;;;-128.00;-1.00;-1.00;98079;294;1004240;-30
2023/04/23 01:42:36;;;;;;;42.70;20.70;;;;;;;-128.00;-1.00;-1.00;97950;294;1005183;-29
2023/04/23 01:45:02;;;;;;;16.60;8.90;;;;;;;-128.00;-1.00;-1.00;97879;294;1003372;-28
2023/04/23 01:47:27;;;;;;;14.80;8.00;;;;;;;-128.00;-1.00;-1.00;98085;294;1003235;-28
2023/04/23 01:49:53;;;;;;;13.50;8.50;;;;;;;-128.00;-1.00;-1.00;98008;294;1003293;-30
2023/04/23 01:52:19;;;;;;;22.90;8.70;;;;;;;-128.00;-1.00;-1.00;97961;294;1002952;-29
2023/04/23 01:54:44;;;;;;;18.00;9.50;;;;;;;-128.00;-1.00;-1.00;97911;294;1003901;-28
2023/04/23 01:57:10;;;;;;;17.00;10.60;;;;;;;-128.00;-1.00;-1.00;97987;294;1005032;-29
2023/04/23 01:59:36;;;;;;;16.00;9.60;;;;;;;-128.00;-1.00;-1.00;98116;294;1004961;-29
2023/04/23 02:02:02;;;;;;;19.80;11.80;;;;;;;-128.00;-1.00;-1.00;97992;294;1004428;-30
2023/04/23 02:04:28;;;;;;;19.60;13.00;;;;;;;-128.00;-1.00;-1.00;97962;294;1003960;-33
2023/04/23 02:06:53;;;;;;;25.40;11.30;;;;;;;-128.00;-1.00;-1.00;98038;295;1004168;-31
2023/04/23 02:09:19;;;;;;;20.40;11.20;;;;;;;-128.00;-1.00;-1.00;97942;294;1003714;-35
2023/04/23 02:11:44;;;;;;;13.50;9.60;;;;;;;-128.00;-1.00;-1.00;97990;282;1003433;-34
2023/04/23 02:14:10;;;;;;;26.70;11.20;;;;;;;-128.00;-1.00;-1.00;97972;294;1002736;-28
2023/04/23 02:16:36;;;;;;;18.90;11.50;;;;;;;-128.00;-1.00;-1.00;97895;294;1003310;-34
2023/04/23 02:19:02;;;;;;;18.30;10.10;;;;;;;-128.00;-1.00;-1.00;97994;294;1005511;-35
2023/04/23 02:21:28;;;;;;;29.30;15.40;;;;;;;-128.00;-1.00;-1.00;97880;294;1004583;-34
2023/04/23 02:23:54;;;;;;;18.50;12.60;;;;;;;-128.00;-1.00;-1.00;98006;294;1002974;-29
2023/04/23 02:26:21;;;;;;;26.60;13.90;;;;;;;-128.00;-1.00;-1.00;97943;294;1004104;-29
2023/04/23 02:28:47;;;;;;;22.20;9.80;;;;;;;-128.00;-1.00;-1.00;98057;294;1003319;-28
2023/04/23 02:31:13;;;;;;;15.00;9.40;;;;;;;-128.00;-1.00;-1.00;97848;294;1003120;-31
2023/04/23 02:33:41;;;;;;;39.40;15.20;;;;;;;-128.00;-1.00;-1.00;97915;294;1002765;-34
2023/04/23 02:36:07;;;;;;;27.90;12.30;;;;;;;-128.00;-1.00;-1.00;97997;294;1003359;-28
2023/04/23 02:38:33;;;;;;;77.30;21.60;;;;;;;-128.00;-1.00;-1.00;98011;294;1002833;-33
2023/04/23 02:40:58;;;;;;;21.90;9.60;;;;;;;-128.00;-1.00;-1.00;98046;282;1003190;-28
2023/04/23 02:43:24;;;;;;;20.60;10.40;;;;;;;-128.00;-1.00;-1.00;97829;295;1002918;-29
2023/04/23 02:45:50;;;;;;;32.10;12.30;;;;;;;-128.00;-1.00;-1.00;97946;294;1003529;-35
2023/04/23 02:48:16;;;;;;;15.50;10.00;;;;;;;-128.00;-1.00;-1.00;97846;294;1004628;-33
2023/04/23 02:50:42;;;;;;;16.30;8.80;;;;;;;-128.00;-1.00;-1.00;97966;294;1003088;-33
2023/04/23 02:53:08;;;;;;;14.20;8.30;;;;;;;-128.00;-1.00;-1.00;98098;294;1004007;-32
2023/04/23 02:55:33;;;;;;;14.20;8.60;;;;;;;-128.00;-1.00;-1.00;97893;294;1004084;-34
2023/04/23 02:57:59;;;;;;;17.60;8.40;;;;;;;-128.00;-1.00;-1.00;97881;293;1004088;-33
2023/04/23 03:00:25;;;;;;;17.80;7.90;;;;;;;-128.00;-1.00;-1.00;98019;294;1004367;-29
2023/04/23 03:02:51;;;;;;;16.80;8.20;;;;;;;-128.00;-1.00;-1.00;97973;294;1005438;-33
2023/04/23 03:05:17;;;;;;;12.80;7.50;;;;;;;-128.00;-1.00;-1.00;97999;294;1002817;-32
2023/04/23 03:07:42;;;;;;;14.50;8.50;;;;;;;-128.00;-1.00;-1.00;97916;294;1003226;-35
2023/04/23 03:10:08;;;;;;;11.90;7.90;;;;;;;-128.00;-1.00;-1.00;98030;294;1002684;-28
2023/04/23 03:12:34;;;;;;;12.00;8.80;;;;;;;-128.00;-1.00;-1.00;98215;294;1004632;-32
2023/04/23 03:15:00;;;;;;;21.80;10.00;;;;;;;-128.00;-1.00;-1.00;97958;294;1003861;-29
2023/04/23 03:17:26;;;;;;;16.70;10.30;;;;;;;-128.00;-1.00;-1.00;98006;294;1004311;-28
2023/04/23 03:19:51;;;;;;;12.80;7.50;;;;;;;-128.00;-1.00;-1.00;98176;294;1003222;-33
2023/04/23 03:22:17;;;;;;;14.70;9.50;;;;;;;-128.00;-1.00;-1.00;97882;294;1003550;-28
2023/04/23 03:24:43;;;;;;;16.50;9.80;;;;;;;-128.00;-1.00;-1.00;97882;294;1002763;-34
2023/04/23 03:27:09;;;;;;;18.80;8.80;;;;;;;-128.00;-1.00;-1.00;98058;294;1004058;-34
2023/04/23 03:29:35;;;;;;;11.90;7.50;;;;;;;-128.00;-1.00;-1.00;98187;294;1003117;-29
2023/04/23 03:32:00;;;;;;;9.90;6.10;;;;;;;-128.00;-1.00;-1.00;97970;294;1004844;-31
2023/04/23 03:34:26;;;;;;;14.30;9.80;;;;;;;-128.00;-1.00;-1.00;89934;294;3002775;-30
2023/04/23 03:36:51;;;;;;;16.00;9.80;;;;;;;-128.00;-1.00;-1.00;81143;294;4503124;-34
2023/04/23 03:39:17;;;;;;;9.80;6.90;;;;;;;-128.00;-1.00;-1.00;85095;294;3003360;-30
2023/04/23 03:41:43;;;;;;;14.70;9.60;;;;;;;-128.00;-1.00;-1.00;91588;294;3002696;-32
2023/04/23 03:44:08;;;;;;;12.40;8.30;;;;;;;-128.00;-1.00;-1.00;95100;294;3002979;-30
2023/04/23 03:46:34;;;;;;;15.30;7.90;;;;;;;-128.00;-1.00;-1.00;80199;294;7353842;-34
2023/04/23 03:49:00;;;;;;;12.70;8.00;;;;;;;-128.00;-1.00;-1.00;88631;294;4503438;-33
2023/04/23 03:51:26;;;;;;;16.10;8.70;;;;;;;-128.00;-1.00;-1.00;98061;294;1004122;-28
2023/04/23 03:53:53;;;;;;;14.90;9.10;;;;;;;-128.00;-1.00;-1.00;50585;294;7504470;-33
2023/04/23 03:56:20;;;;;;;17.30;10.40;;;;;;;-128.00;-1.00;-1.00;18903;294;7505176;-34
2023/04/23 03:58:45;;;;;;;45.10;17.20;;;;;;;-128.00;-1.00;-1.00;52263;294;7504859;-35
2023/04/23 04:01:11;;;;;;;24.00;11.80;;;;;;;-128.00;-1.00;-1.00;79341;294;7504100;-29
2023/04/23 04:03:36;;;;;;;17.50;9.70;;;;;;;-128.00;-1.00;-1.00;97913;294;1002852;-29
2023/04/23 04:06:04;;;;;;;18.00;11.20;;;;;;;-128.00;-1.00;-1.00;43393;284;7504883;-31
2023/04/23 04:08:30;;;;;;;16.50;8.30;;;;;;;-128.00;-1.00;-1.00;33658;294;7504767;-29
2023/04/23 04:10:55;;;;;;;18.10;9.80;;;;;;;-128.00;-1.00;-1.00;78323;294;7117632;-33
2023/04/23 04:13:23;;;;;;;16.30;8.20;;;;;;;-128.00;-1.00;-1.00;95346;294;3003515;-30
2023/04/23 04:15:49;;;;;;;118.20;45.50;;;;;;;-128.00;-1.00;-1.00;18921;294;7506297;-31
2023/04/23 04:18:15;;;;;;;152.30;50.40;;;;;;;-128.00;-1.00;-1.00;18909;294;7504232;-34
2023/04/23 04:20:44;;;;;;;227.50;63.50;;;;;;;-128.00;-1.00;-1.00;20355;338;7504479;-30
2023/04/23 04:23:10;;;;;;;137.60;38.60;;;;;;;-128.00;-1.00;-1.00;18470;295;7505496;-30
2023/04/23 04:25:38;;;;;;;96.10;29.70;;;;;;;-128.00;-1.00;-1.00;18481;294;7504433;-34
2023/04/23 04:28:06;;;;;;;118.40;36.40;;;;;;;-128.00;-1.00;-1.00;18460;294;7506293;-29
2023/04/23 04:30:33;;;;;;;178.40;55.00;;;;;;;-128.00;-1.00;-1.00;18474;294;7503938;-32
2023/04/23 04:33:00;;;;;;;99.10;33.80;;;;;;;-128.00;-1.00;-1.00;18477;346;7504583;-29
2023/04/23 04:35:26;;;;;;;58.70;24.20;;;;;;;-128.00;-1.00;-1.00;18560;305;7504160;-36
2023/04/23 04:37:52;;;;;;;28.50;13.10;;;;;;;-128.00;-1.00;-1.00;18521;294;7504589;-31
2023/04/23 05:17:33;;;;;;;17.90;10.60;;;;;;;-100.17;12.75;19773.22;98335;295;1543541;-37
2023/04/23 05:19:58;;;;;;;14.20;8.30;;;;;;;-128.00;-1.00;-1.00;97583;296;1002739;-30
2023/04/23 05:22:26;;;;;;;13.10;9.00;;;;;;;-128.00;-1.00;-1.00;97825;294;1002886;-34
2023/04/23 05:24:51;;;;;;;9.20;6.10;;;;;;;-128.00;-1.00;-1.00;97881;294;1003324;-30
2023/04/23 05:27:17;;;;;;;10.00;7.00;;;;;;;-128.00;-1.00;-1.00;97873;294;1003074;-34
2023/04/23 05:29:43;;;;;;;14.40;7.70;;;;;;;-128.00;-1.00;-1.00;97852;294;1002963;-34
2023/04/23 05:32:09;;;;;;;10.80;7.10;;;;;;;-128.00;-1.00;-1.00;97830;294;1003901;-30
2023/04/23 05:34:34;;;;;;;13.50;8.80;;;;;;;-128.00;-1.00;-1.00;97864;294;1005059;-29
2023/04/23 05:37:01;;;;;;;13.40;9.50;;;;;;;-128.00;-1.00;-1.00;97809;294;1003688;-34
2023/04/23 05:39:26;;;;;;;17.60;10.10;;;;;;;-128.00;-1.00;-1.00;97857;294;1003244;-35
2023/04/23 05:41:52;;;;;;;19.60;10.50;;;;;;;-128.00;-1.00;-1.00;97908;294;1003717;-30
2023/04/23 05:44:18;;;;;;;31.30;13.90;;;;;;;-128.00;-1.00;-1.00;59512;294;7505050;-32
2023/04/23 05:46:43;;;;;;;34.30;17.20;;;;;;;-128.00;-1.00;-1.00;37970;294;7504090;-30
2023/04/23 05:49:09;;;;;;;14.40;10.30;;;;;;;-128.00;-1.00;-1.00;92180;294;4204069;-34
2023/04/23 05:51:35;;;;;;;10.30;7.80;;;;;;;-128.00;-1.00;-1.00;97960;294;1004353;-30
2023/04/23 05:54:00;;;;;;;13.60;7.00;;;;;;;-128.00;-1.00;-1.00;97801;294;1003298;-30
2023/04/23 05:56:26;;;;;;;10.80;7.10;;;;;;;-128.00;-1.00;-1.00;97890;294;1003604;-30
2023/04/23 05:58:52;;;;;;;19.90;6.50;;;;;;;-128.00;-1.00;-1.00;97829;294;1003351;-31
2023/04/23 06:01:18;;;;;;;22.00;5.60;;;;;;;-128.00;-1.00;-1.00;97932;294;1003424;-30
2023/04/23 06:03:44;;;;;;;8.80;7.20;;;;;;;-128.00;-1.00;-1.00;98007;294;1003235;-30
2023/04/23 06:06:11;;;;;;;11.80;6.70;;;;;;;-128.00;-1.00;-1.00;97847;285;1002782;-36
2023/04/23 06:08:37;;;;;;;15.50;7.90;;;;;;;-128.00;-1.00;-1.00;85541;294;4503260;-35
2023/04/23 06:11:03;;;;;;;9.20;6.20;;;;;;;-128.00;-1.00;-1.00;97882;297;1002832;-31
2023/04/23 06:13:29;;;;;;;12.30;7.00;;;;;;;-128.00;-1.00;-1.00;97828;294;1004644;-34
2023/04/23 06:15:56;;;;;;;12.10;6.90;;;;;;;-128.00;-1.00;-1.00;97945;294;1003882;-35
2023/04/23 06:18:22;;;;;;;8.70;5.10;;;;;;;-128.00;-1.00;-1.00;98078;294;1003809;-34
2023/04/23 06:20:50;;;;;;;9.50;5.80;;;;;;;-128.00;-1.00;-1.00;97899;294;1005183;-34
2023/04/23 06:23:16;;;;;;;10.50;5.20;;;;;;;-128.00;-1.00;-1.00;97881;294;1002876;-34
2023/04/23 06:25:41;;;;;;;7.20;5.60;;;;;;;-128.00;-1.00;-1.00;97930;285;1003064;-34
2023/04/23 06:28:07;;;;;;;11.20;5.70;;;;;;;-128.00;-1.00;-1.00;97769;294;1002882;-36
2023/04/23 06:30:32;;;;;;;5.30;4.00;;;;;;;-128.00;-1.00;-1.00;97883;285;1003684;-33
2023/04/23 06:32:58;;;;;;;8.10;5.60;;;;;;;-128.00;-1.00;-1.00;97487;294;1002637;-32
2023/04/23 06:35:23;;;;;;;25.80;5.70;;;;;;;-128.00;-1.00;-1.00;97940;285;1003169;-30
2023/04/23 06:37:49;;;;;;;12.00;5.20;;;;;;;-128.00;-1.00;-1.00;94519;294;3002746;-29
2023/04/23 06:40:15;;;;;;;6.20;4.70;;;;;;;-128.00;-1.00;-1.00;96616;294;2708311;-30
2023/04/23 06:42:41;;;;;;;6.10;3.60;;;;;;;-128.00;-1.00;-1.00;76285;294;5601341;-32
2023/04/23 06:45:08;;;;;;;6.10;3.60;;;;;;;-128.00;-1.00;-1.00;42517;296;7503671;-33
2023/04/23 06:47:34;;;;;;;5.50;3.70;;;;;;;-128.00;-1.00;-1.00;68757;295;7439030;-35
2023/04/23 06:50:01;;;;;;;9.60;5.10;;;;;;;-128.00;-1.00;-1.00;98027;294;1003140;-32
2023/04/23 06:52:26;;;;;;;6.60;3.80;;;;;;;-128.00;-1.00;-1.00;97781;294;1003279;-36
2023/04/23 06:54:52;;;;;;;11.20;6.30;;;;;;;-128.00;-1.00;-1.00;61558;294;7504272;-32
2023/04/23 06:57:17;;;;;;;8.40;5.50;;;;;;;-128.00;-1.00;-1.00;68908;296;7504111;-36
2023/04/23 06:59:46;;;;;;;12.20;4.90;;;;;;;-128.00;-1.00;-1.00;49186;294;7504455;-37
2023/04/23 07:02:13;;;;;;;5.40;4.40;;;;;;;-128.00;-1.00;-1.00;28074;283;7504777;-32
2023/04/23 07:04:38;;;;;;;7.50;4.90;;;;;;;-128.00;-1.00;-1.00;59362;294;4503597;-31
2023/04/23 07:07:04;;;;;;;10.40;5.10;;;;;;;-128.00;-1.00;-1.00;85190;294;3002957;-32
2023/04/23 07:09:30;;;;;;;7.00;4.30;;;;;;;-128.00;-1.00;-1.00;97917;294;1003045;-32
2023/04/23 07:11:56;;;;;;;10.80;5.10;;;;;;;-128.00;-1.00;-1.00;97865;294;1004839;-30
2023/04/23 07:14:24;;;;;;;8.70;5.70;;;;;;;-128.00;-1.00;-1.00;73500;294;7504162;-36
2023/04/23 07:16:51;;;;;;;14.60;6.50;;;;;;;-128.00;-1.00;-1.00;42164;294;7172623;-31
2023/04/23 07:19:16;;;;;;;6.40;4.60;;;;;;;-128.00;-1.00;-1.00;80911;285;3062780;-31
2023/04/23 07:21:44;;;;;;;10.90;5.80;;;;;;;-128.00;-1.00;-1.00;57619;294;7503671;-31
2023/04/23 07:24:11;;;;;;;9.20;5.60;;;;;;;-128.00;-1.00;-1.00;26789;294;7504436;-32
2023/04/23 07:26:37;;;;;;;7.00;4.70;;;;;;;-128.00;-1.00;-1.00;18873;304;7505298;-36
2023/04/23 07:29:05;;;;;;;7.60;4.90;;;;;;;-128.00;-1.00;-1.00;18882;294;7506043;-32
2023/04/23 07:31:31;;;;;;;16.00;5.30;;;;;;;-128.00;-1.00;-1.00;18483;294;7504683;-36
2023/04/23 07:33:57;;;;;;;20.00;11.60;;;;;;;-128.00;-1.00;-1.00;18901;347;7505541;-32
2023/04/23 07:36:23;;;;;;;14.50;5.20;;;;;;;-128.00;-1.00;-1.00;18878;347;7505127;-33
2023/04/23 07:38:50;;;;;;;6.50;4.60;;;;;;;-128.00;-1.00;-1.00;19587;343;7504515;-36
2023/04/23 07:41:16;;;;;;;8.10;5.00;;;;;;;-128.00;-1.00;-1.00;18929;294;7504290;-32
2023/04/23 07:43:43;;;;;;;6.10;4.20;;;;;;;-128.00;-1.00;-1.00;18856;296;7504793;-32
2023/04/23 07:46:09;;;;;;;52.60;22.80;;;;;;;-128.00;-1.00;-1.00;56505;287;7504161;-35
2023/04/23 07:48:34;;;;;;;29.70;17.20;;;;;;;-128.00;-1.00;-1.00;55148;285;7504128;-36
2023/04/23 07:51:01;;;;;;;5.40;4.10;;;;;;;-128.00;-1.00;-1.00;58635;294;7409645;-37
2023/04/23 07:53:27;;;;;;;8.10;5.30;;;;;;;-128.00;-1.00;-1.00;89787;294;3002549;-31
2023/04/23 07:55:55;;;;;;;10.20;3.80;;;;;;;-128.00;-1.00;-1.00;46297;294;7503495;-32
2023/04/23 07:58:22;;;;;;;6.10;4.10;;;;;;;-128.00;-1.00;-1.00;21756;294;7503963;-36
2023/04/23 08:00:47;;;;;;;6.10;4.10;;;;;;;-128.00;-1.00;-1.00;20444;295;7504831;-35
2023/04/23 08:03:13;;;;;;;3.40;3.00;;;;;;;-128.00;-1.00;-1.00;53200;295;7503724;-36
2023/04/23 08:05:40;;;;;;;3.40;3.00;;;;;;;-128.00;-1.00;-1.00;32236;283;7505143;-35
2023/04/23 08:08:07;;;;;;;30.60;3.70;;;;;;;-128.00;-1.00;-1.00;25868;294;7504060;-35
2023/04/23 08:10:33;;;;;;;7.00;2.40;;;;;;;-128.00;-1.00;-1.00;89136;297;6091397;-34
2023/04/23 08:12:59;;;;;;;6.50;2.80;;;;;;;-128.00;-1.00;-1.00;93624;294;3002649;-36
2023/04/23 08:15:25;;;;;;;6.00;2.10;;;;;;;-128.00;-1.00;-1.00;97543;285;1003602;-35
2023/04/23 08:17:51;;;;;;;4.90;2.20;;;;;;;-128.00;-1.00;-1.00;97514;294;1512548;-35
2023/04/23 08:20:18;;;;;;;3.40;1.80;;;;;;;-128.00;-1.00;-1.00;61949;294;7503537;-32
2023/04/23 08:22:43;;;;;;;3.20;2.10;;;;;;;-128.00;-1.00;-1.00;61998;294;7354975;-33
2023/04/23 08:25:09;;;;;;;7.70;2.90;;;;;;;-128.00;-1.00;-1.00;25734;296;7504378;-35
2023/04/23 08:27:35;;;;;;;7.40;2.30;;;;;;;-128.00;-1.00;-1.00;52461;294;7503992;-32
2023/04/23 08:30:01;;;;;;;7.40;2.30;;;;;;;-128.00;-1.00;-1.00;30177;294;7505790;-35
2023/04/23 08:32:28;;;;;;;4.90;2.50;;;;;;;-128.00;-1.00;-1.00;19329;294;7504179;-32
2023/04/23 08:34:54;;;;;;;3.30;2.30;;;;;;;-128.00;-1.00;-1.00;20295;335;7504361;-35
2023/04/23 08:37:20;;;;;;;14.50;2.90;;;;;;;-128.00;-1.00;-1.00;19750;294;7504977;-35
2023/04/23 08:39:48;;;;;;;2.60;1.90;;;;;;;-128.00;-1.00;-1.00;27924;294;7504562;-31
2023/04/23 08:42:22;;;;;;;6.00;2.70;;;;;;;-128.00;-1.00;-1.00;18881;294;7504405;-35
2023/04/23 08:44:48;;;;;;;4.20;2.60;;;;;;;-128.00;-1.00;-1.00;18519;294;7504436;-31
2023/04/23 08:47:16;;;;;;;6.40;2.90;;;;;;;-128.00;-1.00;-1.00;18875;296;7505077;-31
2023/04/23 08:49:42;;;;;;;5.50;3.70;;;;;;;-128.00;-1.00;-1.00;18463;310;7507024;-32
2023/04/23 08:52:14;;;;;;;7.50;2.30;;;;;;;-128.00;-1.00;-1.00;18472;294;7504551;-35
2023/04/23 08:54:41;;;;;;;13.90;2.20;;;;;;;-128.00;-1.00;-1.00;18486;306;7504317;-32
2023/04/23 08:57:07;;;;;;;3.30;2.50;;;;;;;-128.00;-1.00;-1.00;18471;294;7504314;-36
2023/04/23 08:59:33;;;;;;;3.10;2.50;;;;;;;-128.00;-1.00;-1.00;18887;295;7504662;-36
2023/04/23 09:02:00;;;;;;;3.00;2.10;;;;;;;-128.00;-1.00;-1.00;19470;339;7504552;-31
2023/04/23 09:04:26;;;;;;;7.10;2.80;;;;;;;-128.00;-1.00;-1.00;19664;335;7504415;-32
2023/04/23 09:06:52;;;;;;;4.40;2.60;;;;;;;-128.00;-1.00;-1.00;70353;294;7503016;-31
2023/04/23 09:09:17;;;;;;;5.50;2.50;;;;;;;-128.00;-1.00;-1.00;77187;295;3094457;-31
2023/04/23 09:11:43;;;;;;;12.30;1.80;;;;;;;-128.00;-1.00;-1.00;61461;294;4503503;-35
2023/04/23 09:14:09;;;;;;;3.40;2.00;;;;;;;-128.00;-1.00;-1.00;68571;294;5896617;-37
2023/04/23 09:16:39;;;;;;;11.50;1.60;;;;;;;-128.00;-1.00;-1.00;73560;294;7504050;-34
2023/04/23 09:19:06;;;;;;;11.50;1.60;;;;;;;-128.00;-1.00;-1.00;44794;295;7503743;-34
2023/04/23 09:21:33;;;;;;;6.80;2.10;;;;;;;-128.00;-1.00;-1.00;44061;294;7504458;-31
2023/04/23 09:24:04;;;;;;;4.00;2.30;;;;;;;-128.00;-1.00;-1.00;30174;294;7504393;-31
2023/04/23 09:26:29;;;;;;;7.50;2.50;;;;;;;-128.00;-1.00;-1.00;18471;294;7504660;-31
2023/04/23 09:28:56;;;;;;;4.80;3.00;;;;;;;-128.00;-1.00;-1.00;19745;294;7504127;-31
2023/04/23 09:31:22;;;;;;;6.20;2.70;;;;;;;-128.00;-1.00;-1.00;19306;294;7504219;-31
2023/04/23 09:33:52;;;;;;;7.10;2.50;;;;;;;-128.00;-1.00;-1.00;18458;338;7506039;-33
2023/04/23 09:36:22;;;;;;;3.80;2.30;;;;;;;-128.00;-1.00;-1.00;18676;294;7505237;-32
2023/04/23 09:38:48;;;;;;;4.70;2.40;;;;;;;-128.00;-1.00;-1.00;29324;294;7503906;-36
2023/04/23 09:41:27;;;;;;;3.30;1.50;;;;;;;-128.00;-1.00;-1.00;64044;294;7503438;-31
2023/04/23 09:43:55;;;;;;;2.10;1.90;;;;;;;-128.00;-1.00;-1.00;32146;283;7504351;-35
2023/04/23 09:46:37;;;;;;;3.40;2.10;;;;;;;-128.00;-1.00;-1.00;19017;289;7504514;-35
2023/04/23 09:49:06;;;;;;;7.50;2.40;;;;;;;-128.00;-1.00;-1.00;18918;346;7505472;-31
2023/04/23 09:51:35;;;;;;;3.10;2.10;;;;;;;-128.00;-1.00;-1.00;20634;296;7505138;-35
2023/04/23 09:54:03;;;;;;;3.10;2.10;;;;;;;-128.00;-1.00;-1.00;20377;318;7504368;-35
2023/04/23 09:56:31;;;;;;;6.00;2.50;;;;;;;-128.00;-1.00;-1.00;25205;296;7504673;-31
2023/04/23 09:58:57;;;;;;;4.20;2.50;;;;;;;-128.00;-1.00;-1.00;30658;296;7504111;-34
2023/04/23 10:01:28;;;;;;;3.20;1.90;;;;;;;-128.00;-1.00;-1.00;18658;294;7504112;-31
2023/04/23 10:03:55;;;;;;;2.00;1.60;;;;;;;-128.00;-1.00;-1.00;19585;336;7504577;-33
2023/04/23 10:06:27;;;;;;;2.90;2.00;;;;;;;-128.00;-1.00;-1.00;30269;294;7504069;-36
2023/04/23 10:08:55;;;;;;;2.70;1.30;;;;;;;-128.00;-1.00;-1.00;46886;347;7504283;-34
2023/04/23 10:11:23;;;;;;;8.10;3.30;;;;;;;-128.00;-1.00;-1.00;18907;295;7504961;-33
2023/04/23 10:13:50;;;;;;;8.60;3.10;;;;;;;-128.00;-1.00;-1.00;21756;294;7504480;-35
2023/04/23 10:16:17;;;;;;;2.90;2.20;;;;;;;-128.00;-1.00;-1.00;19604;294;7504612;-31
2023/04/23 10:18:42;;;;;;;3.90;2.30;;;;;;;-128.00;-1.00;-1.00;56866;287;7503811;-31
2023/04/23 10:21:08;;;;;;;2.40;1.90;;;;;;;-128.00;-1.00;-1.00;72267;294;4502975;-31
2023/04/23 10:23:34;;;;;;;2.50;1.70;;;;;;;-128.00;-1.00;-1.00;84143;285;5510221;-34
2023/04/23 10:25:59;;;;;;;6.20;2.30;;;;;;;-128.00;-1.00;-1.00;73356;294;7353814;-34
2023/04/23 10:28:30;;;;;;;2.60;2.00;;;;;;;-128.00;-1.00;-1.00;71552;294;7504019;-34
2023/04/23 10:30:56;;;;;;;2.60;2.00;;;;;;;-128.00;-1.00;-1.00;33176;296;7504392;-32
2023/04/23 10:33:22;;;;;;;3.20;1.40;;;;;;;-128.00;-1.00;-1.00;39931;294;7505370;-35
2023/04/23 10:35:47;;;;;;;3.70;1.90;;;;;;;-128.00;-1.00;-1.00;59932;294;7504808;-34
2023/04/23 10:38:13;;;;;;;1.90;1.60;;;;;;;-128.00;-1.00;-1.00;30628;294;7504892;-30
2023/04/23 10:40:39;;;;;;;4.00;1.40;;;;;;;-128.00;-1.00;-1.00;59986;294;7503856;-34
2023/04/23 10:43:04;;;;;;;8.30;1.80;;;;;;;-128.00;-1.00;-1.00;91907;294;3856157;-34
2023/04/23 10:45:31;;;;;;;2.40;1.50;;;;;;;-128.00;-1.00;-1.00;97822;294;1034284;-30
2023/04/23 10:47:57;;;;;;;1.70;1.20;;;;;;;-128.00;-1.00;-1.00;97194;294;1294510;-31
2023/04/23 10:50:24;;;;;;;3.40;2.40;;;;;;;-128.00;-1.00;-1.00;97861;294;1002898;-35
2023/04/23 10:52:52;;;;;;;2.80;1.40;;;;;;;-128.00;-1.00;-1.00;89578;294;3002941;-32
2023/04/23 10:55:22;;;;;;;10.20;2.80;;;;;;;-128.00;-1.00;-1.00;41765;294;7504507;-36
2023/04/23 10:57:58;;;;;;;2.60;2.20;;;;;;;-128.00;-1.00;-1.00;18475;294;7506213;-36
2023/04/23 11:00:25;;;;;;;5.40;2.60;;;;;;;-128.00;-1.00;-1.00;18494;318;7504792;-36
2023/04/23 11:02:52;;;;;;;2.10;1.50;;;;;;;-128.00;-1.00;-1.00;18490;339;7504787;-32
2023/04/23 11:05:17;;;;;;;2.00;1.60;;;;;;;-128.00;-1.00;-1.00;18506;294;7504926;-32
2023/04/23 11:49:08;;;;;;;1.70;1.20;;;;;;;-97.35;4.85;19726.82;98246;295;1543826;-31
2023/04/23 11:51:35;;;;;;;2.90;1.00;;;;;;;-128.00;-1.00;-1.00;97496;285;1003178;-31
2023/04/23 11:54:04;;;;;;;2.20;1.60;;;;;;;-128.00;-1.00;-1.00;97818;295;1002862;-31
2023/04/23 11:56:31;;;;;;;2.00;1.20;;;;;;;-128.00;-1.00;-1.00;97949;295;1003685;-31
2023/04/23 11:59:02;;;;;;;2.60;1.60;;;;;;;-128.00;-1.00;-1.00;97749;295;1004178;-35
2023/04/23 12:01:46;;;;;;;6.20;1.30;;;;;;;-128.00;-1.00;-1.00;97915;295;1002968;-31
2023/04/23 12:04:17;;;;;;;7.20;1.60;;;;;;;-128.00;-1.00;-1.00;97886;294;1002841;-35
2023/04/23 12:06:44;;;;;;;2.60;1.70;;;;;;;-128.00;-1.00;-1.00;97984;295;1003128;-35
2023/04/23 12:09:11;;;;;;;8.00;1.60;;;;;;;-128.00;-1.00;-1.00;97908;295;1003721;-29
2023/04/23 12:11:38;;;;;;;3.10;1.40;;;;;;;-128.00;-1.00;-1.00;97864;294;1003602;-34
2023/04/23 12:14:04;;;;;;;2.60;1.30;;;;;;;-128.00;-1.00;-1.00;97888;295;1002791;-30
2023/04/23 12:16:38;;;;;;;1.30;0.90;;;;;;;-128.00;-1.00;-1.00;97826;295;1003064;-31
2023/04/23 12:19:07;;;;;;;1.90;1.40;;;;;;;-128.00;-1.00;-1.00;97846;283;1002935;-31
2023/04/23 12:21:33;;;;;;;1.90;1.20;;;;;;;-128.00;-1.00;-1.00;97869;295;1004823;-34
2023/04/23 12:23:58;;;;;;;1.80;1.30;;;;;;;-128.00;-1.00;-1.00;97974;295;1003244;-30
2023/04/23 12:26:24;;;;;;;2.90;1.00;;;;;;;-128.00;-1.00;-1.00;97960;295;1002845;-37
2023/04/23 12:28:51;;;;;;;12.40;1.00;;;;;;;-128.00;-1.00;-1.00;97900;295;1003815;-32
2023/04/23 12:31:26;;;;;;;1.50;1.10;;;;;;;-128.00;-1.00;-1.00;97939;295;1004458;-33
2023/04/23 12:34:07;;;;;;;1.60;1.20;;;;;;;-128.00;-1.00;-1.00;97838;295;1002560;-36
2023/04/23 12:36:35;;;;;;;1.90;1.30;;;;;;;-128.00;-1.00;-1.00;97860;294;1003102;-34
2023/04/23 12:39:20;;;;;;;2.10;1.70;;;;;;;-128.00;-1.00;-1.00;97978;295;1003676;-32
2023/04/23 12:41:47;;;;;;;4.80;1.60;;;;;;;-128.00;-1.00;-1.00;97902;283;1003132;-34